createdAt,value
2019-05-21T00:01:17.773Z,16.87
2019-05-21T00:03:46.567Z,16.43
2019-05-21T00:06:15.389Z,45.33
2019-05-21T00:08:44.278Z,200.60
2019-05-21T00:11:13.174Z,282.70
2019-05-21T00:13:42.123Z,243.80
2019-05-21T00:16:10.939Z,924.37
2019-05-21T00:18:39.732Z,811.73
2019-05-21T00:21:09.626Z,480.77
2019-05-21T00:23:38.424Z,417.17
2019-05-21T00:26:07.241Z,261.37
2019-05-21T00:28:40.325Z,81.83
2019-05-21T00:31:44.950Z,75.33
2019-05-21T00:34:49.840Z,84.53
2019-05-21T00:37:54.630Z,48.00
2019-05-21T00:40:59.249Z,52.50
2019-05-21T00:43:58.145Z,28.80
2019-05-21T00:46:27.113Z,17.93
2019-05-21T00:48:55.984Z,13.47
2019-05-21T00:51:24.886Z,13.50
2019-05-21T00:53:53.722Z,13.43
2019-05-21T00:56:22.524Z,15.47
2019-05-21T00:58:51.537Z,17.17
2019-05-21T01:01:20.337Z,15.37
2019-05-21T01:03:49.152Z,13.17
2019-05-21T01:06:17.973Z,14.23
2019-05-21T01:08:49.689Z,13.43
2019-05-21T01:11:18.490Z,10.90
2019-05-21T01:13:47.347Z,9.43
2019-05-21T01:16:16.156Z,9.67
2019-05-21T01:18:44.957Z,10.63
2019-05-21T01:21:13.937Z,11.73
2019-05-21T01:23:42.815Z,13.30
2019-05-21T01:26:11.598Z,15.43
2019-05-21T01:28:40.429Z,15.87
2019-05-21T01:31:09.237Z,14.00
2019-05-21T01:33:38.047Z,15.10
2019-05-21T01:36:06.848Z,13.90
2019-05-21T01:38:35.674Z,17.10
2019-05-21T01:41:04.465Z,18.37
2019-05-21T01:43:33.288Z,17.70
2019-05-21T01:46:03.188Z,15.00
2019-05-21T01:48:32.003Z,12.40
2019-05-21T01:51:00.885Z,11.73
2019-05-21T01:53:29.703Z,12.33
2019-05-21T01:55:58.476Z,12.60
2019-05-21T01:58:28.451Z,14.80
2019-05-21T02:00:57.715Z,15.70
2019-05-21T02:03:26.636Z,19.60
2019-05-21T02:05:55.816Z,23.83
2019-05-21T02:08:24.631Z,22.73
2019-05-21T02:10:53.817Z,28.03
2019-05-21T02:13:22.661Z,28.10
2019-05-21T02:15:51.464Z,45.83
2019-05-21T02:18:20.279Z,23.50
2019-05-21T02:20:49.058Z,16.43
2019-05-21T02:23:17.920Z,19.80
2019-05-21T02:25:46.894Z,28.50
2019-05-21T02:28:15.692Z,16.87
2019-05-21T02:30:44.485Z,18.37
2019-05-21T02:33:13.303Z,19.57
2019-05-21T02:35:53.508Z,23.37
2019-05-21T02:38:12.702Z,34.80
2019-05-21T02:40:41.606Z,84.93
2019-05-21T02:43:10.419Z,117.17
2019-05-21T02:45:39.242Z,293.00
2019-05-21T02:48:08.207Z,840.63
2019-05-21T02:50:36.997Z,555.37
2019-05-21T02:53:05.888Z,640.67
2019-05-21T02:55:34.696Z,646.87
2019-05-21T02:58:03.507Z,302.83
2019-05-21T03:00:42.270Z,402.50
2019-05-21T03:03:11.941Z,238.37
2019-05-21T03:05:40.738Z,39.60
2019-05-21T03:08:09.760Z,39.17
2019-05-21T03:10:38.564Z,45.73
2019-05-21T03:13:07.507Z,38.23
2019-05-21T03:15:36.301Z,41.47
2019-05-21T03:18:05.411Z,36.43
2019-05-21T03:20:34.260Z,39.60
2019-05-21T03:23:03.053Z,35.60
2019-05-21T03:25:31.863Z,34.63
2019-05-21T03:28:00.717Z,34.67
2019-05-21T03:30:29.581Z,33.73
2019-05-21T03:32:58.398Z,35.10
2019-05-21T03:35:27.258Z,35.50
2019-05-21T03:37:56.183Z,39.97
2019-05-21T03:40:24.997Z,45.90
2019-05-21T03:42:53.884Z,36.13
2019-05-21T03:45:22.836Z,35.63
2019-05-21T03:47:51.714Z,41.47
2019-05-21T03:50:20.595Z,42.97
2019-05-21T03:52:49.516Z,40.27
2019-05-21T03:55:18.353Z,40.67
2019-05-21T03:57:47.293Z,36.03
2019-05-21T04:00:16.673Z,33.27
2019-05-21T04:02:47.163Z,34.60
2019-05-21T04:05:24.134Z,32.03
2019-05-21T04:07:52.970Z,34.33
2019-05-21T04:10:23.384Z,32.70
2019-05-21T04:13:08.059Z,33.20
2019-05-21T04:16:00.147Z,33.13
2019-05-21T04:18:34.577Z,40.20
2019-05-21T04:21:03.397Z,28.47
2019-05-21T04:23:32.196Z,32.10
2019-05-21T04:26:01.012Z,34.13
2019-05-21T04:28:29.918Z,33.23
2019-05-21T04:30:58.748Z,39.40
2019-05-21T04:33:27.621Z,34.93
2019-05-21T04:35:56.595Z,45.30
2019-05-21T04:38:25.389Z,36.93
2019-05-21T04:40:54.277Z,35.03
2019-05-21T04:43:23.142Z,34.33
2019-05-21T04:45:51.980Z,33.40
2019-05-21T04:48:20.770Z,37.20
2019-05-21T04:50:49.574Z,38.10
2019-05-21T04:53:18.361Z,28.43
2019-05-21T04:55:48.810Z,30.17
2019-05-21T04:58:17.732Z,28.00
2019-05-21T05:00:48.081Z,30.97
2019-05-21T05:03:16.889Z,28.63
2019-05-21T05:05:45.948Z,32.73
2019-05-21T05:08:14.803Z,30.77
2019-05-21T05:10:43.676Z,32.77
2019-05-21T05:13:12.620Z,30.23
2019-05-21T05:15:41.425Z,31.57
2019-05-21T05:18:10.309Z,29.43
2019-05-21T05:20:39.122Z,29.67
2019-05-21T05:23:07.989Z,29.63
2019-05-21T05:25:36.780Z,28.73
2019-05-21T05:28:05.577Z,26.80
2019-05-21T05:30:34.474Z,26.30
2019-05-21T05:33:04.544Z,29.33
2019-05-21T05:35:33.354Z,28.50
2019-05-21T05:38:02.149Z,29.07
2019-05-21T05:40:30.944Z,26.83
2019-05-21T05:42:59.739Z,27.60
2019-05-21T05:45:28.698Z,28.50
2019-05-21T05:47:57.510Z,26.57
2019-05-21T05:50:29.381Z,24.47
2019-05-21T05:52:58.253Z,25.30
2019-05-21T05:55:27.158Z,24.27
2019-05-21T05:57:55.939Z,24.90
2019-05-21T06:00:26.215Z,23.57
2019-05-21T06:02:55.077Z,24.10
2019-05-21T06:05:24.013Z,25.27
2019-05-21T06:07:59.784Z,24.07
2019-05-21T06:10:23.413Z,22.63
2019-05-21T06:12:52.285Z,23.23
2019-05-21T06:15:21.231Z,24.17
2019-05-21T06:17:50.032Z,24.40
2019-05-21T06:20:19.534Z,22.47
2019-05-21T06:22:49.418Z,21.43
2019-05-21T06:25:18.897Z,22.90
2019-05-21T06:27:50.712Z,21.30
2019-05-21T06:30:19.749Z,19.33
2019-05-21T06:32:48.580Z,19.20
2019-05-21T06:35:17.520Z,19.07
2019-05-21T06:37:47.989Z,17.17
2019-05-21T06:40:18.735Z,18.70
2019-05-21T06:42:47.702Z,18.30
2019-05-21T06:45:17.258Z,19.00
2019-05-21T06:47:46.062Z,17.73
2019-05-21T06:50:15.206Z,17.63
2019-05-21T06:52:44.023Z,16.50
2019-05-21T06:55:13.065Z,15.87
2019-05-21T06:57:41.962Z,14.60
2019-05-21T07:00:12.268Z,16.23
2019-05-21T07:02:41.149Z,16.40
2019-05-21T07:05:10.696Z,13.27
2019-05-21T07:07:39.494Z,13.50
2019-05-21T07:10:08.771Z,12.10
2019-05-21T07:12:37.678Z,12.47
2019-05-21T07:15:06.770Z,12.80
2019-05-21T07:17:35.700Z,12.47
2019-05-21T07:20:05.220Z,11.77
2019-05-21T07:22:34.116Z,11.30
2019-05-21T07:25:02.979Z,11.27
2019-05-21T07:27:31.788Z,12.20
2019-05-21T07:30:00.583Z,11.73
2019-05-21T07:32:29.398Z,12.13
2019-05-21T07:34:58.210Z,13.80
2019-05-21T07:37:27.123Z,12.53
2019-05-21T07:39:55.909Z,14.10
2019-05-21T07:42:24.792Z,13.03
2019-05-21T07:44:53.604Z,12.80
2019-05-21T07:47:23.487Z,13.23
2019-05-21T07:49:52.284Z,14.57
2019-05-21T07:52:21.079Z,13.93
2019-05-21T07:54:49.872Z,14.67
2019-05-21T07:57:18.745Z,14.97
2019-05-21T07:59:50.353Z,13.70
2019-05-21T08:02:19.171Z,12.77
2019-05-21T08:04:49.132Z,12.70
2019-05-21T08:07:18.009Z,13.70
2019-05-21T08:09:49.858Z,14.60
2019-05-21T08:12:37.262Z,14.60
2019-05-21T08:14:49.256Z,13.20
2019-05-21T08:17:18.137Z,12.07
2019-05-21T08:19:49.967Z,12.40
2019-05-21T08:22:18.781Z,12.80
2019-05-21T08:24:50.684Z,11.53
2019-05-21T08:27:19.563Z,10.80
2019-05-21T08:29:49.378Z,10.07
2019-05-21T08:32:18.249Z,12.30
2019-05-21T08:34:47.121Z,11.33
2019-05-21T08:37:15.911Z,10.50
2019-05-21T08:39:44.704Z,10.07
2019-05-21T08:42:13.521Z,10.40
2019-05-21T08:44:42.421Z,11.67
2019-05-21T08:47:11.273Z,11.40
2019-05-21T08:49:40.085Z,12.00
2019-05-21T08:52:08.949Z,12.60
2019-05-21T08:54:47.034Z,11.03
2019-05-21T08:57:15.899Z,11.17
2019-05-21T08:59:44.850Z,10.43
2019-05-21T09:02:13.804Z,11.40
2019-05-21T09:04:46.315Z,10.47
2019-05-21T09:07:13.344Z,10.37
2019-05-21T09:09:49.820Z,9.30
2019-05-21T09:12:12.876Z,10.83
2019-05-21T09:14:41.773Z,12.70
2019-05-21T09:17:10.623Z,10.43
2019-05-21T09:19:39.412Z,9.60
2019-05-21T09:22:08.237Z,8.80
2019-05-21T09:24:37.088Z,9.30
2019-05-21T09:27:06.055Z,12.07
2019-05-21T09:29:34.950Z,10.30
2019-05-21T09:32:03.821Z,11.77
2019-05-21T09:34:47.344Z,37.97
2019-05-21T09:37:18.172Z,13.60
2019-05-21T09:39:33.816Z,14.17
2019-05-21T09:42:02.619Z,16.23
2019-05-21T09:44:31.433Z,15.40
2019-05-21T09:47:00.359Z,15.33
2019-05-21T09:49:29.205Z,16.00
2019-05-21T09:51:58.061Z,17.60
2019-05-21T09:54:27.023Z,17.47
2019-05-21T09:56:55.884Z,15.20
2019-05-21T09:59:47.353Z,16.57
2019-05-21T10:02:19.946Z,17.77
2019-05-21T10:04:48.888Z,19.07
2019-05-21T10:07:17.827Z,18.57
2019-05-21T10:09:49.660Z,18.13
2019-05-21T10:12:18.454Z,19.40
2019-05-21T10:14:49.842Z,16.73
2019-05-21T10:17:18.769Z,17.73
2019-05-21T10:19:47.702Z,16.03
2019-05-21T10:22:16.564Z,17.73
2019-05-21T10:24:45.426Z,16.23
2019-05-21T10:27:14.367Z,16.23
2019-05-21T10:29:43.182Z,16.77
2019-05-21T10:32:12.049Z,18.50
2019-05-21T10:34:40.931Z,17.00
2019-05-21T10:37:09.716Z,16.20
2019-05-21T10:39:38.743Z,15.20
2019-05-21T10:42:07.816Z,13.73
2019-05-21T10:44:36.853Z,14.60
2019-05-21T10:47:05.807Z,17.80
2019-05-21T10:49:34.629Z,19.30
2019-05-21T10:52:03.570Z,21.50
2019-05-21T10:54:32.364Z,21.13
2019-05-21T10:57:01.236Z,21.57
2019-05-21T10:59:30.108Z,21.90
2019-05-21T11:02:21.220Z,27.70
2019-05-21T11:04:56.630Z,19.80
2019-05-21T11:07:25.528Z,16.80
2019-05-21T11:09:54.377Z,19.03
2019-05-21T11:12:23.280Z,28.53
2019-05-21T11:14:52.174Z,31.50
2019-05-21T11:17:21.267Z,22.33
2019-05-21T11:19:50.109Z,29.10
2019-05-21T11:22:19.008Z,85.17
2019-05-21T11:24:47.832Z,289.80
2019-05-21T11:27:16.628Z,482.10
2019-05-21T11:29:45.436Z,274.03
2019-05-21T11:32:14.387Z,178.53
2019-05-21T11:34:43.278Z,188.10
2019-05-21T11:37:12.208Z,67.30
2019-05-21T11:39:41.098Z,11.63
2019-05-21T11:42:09.955Z,20.13
2019-05-21T11:44:38.785Z,13.27
2019-05-21T11:47:07.659Z,107.80
2019-05-21T11:49:36.617Z,196.47
2019-05-21T11:52:05.734Z,85.13
2019-05-21T11:54:34.543Z,66.93
2019-05-21T11:57:03.408Z,51.70
2019-05-21T11:59:32.200Z,516.33
2019-05-21T12:02:01.009Z,164.93
2019-05-21T12:04:29.802Z,305.57
2019-05-21T12:06:58.624Z,365.63
2019-05-21T12:09:27.496Z,301.83
2019-05-21T12:11:56.373Z,367.93
2019-05-21T12:14:26.318Z,227.43
2019-05-21T12:16:55.256Z,263.63
2019-05-21T12:19:24.088Z,99.87
2019-05-21T12:21:52.909Z,100.30
2019-05-21T12:24:21.852Z,309.23
2019-05-21T12:26:50.756Z,111.93
2019-05-21T12:29:19.687Z,362.63
2019-05-21T12:31:51.528Z,351.27
2019-05-21T12:34:20.385Z,208.53
2019-05-21T12:36:49.210Z,487.93
2019-05-21T12:39:18.080Z,287.20
2019-05-21T12:41:47.000Z,793.13
2019-05-21T12:44:15.809Z,1048.33
2019-05-21T12:46:44.693Z,713.83
2019-05-21T12:49:13.505Z,430.83
2019-05-21T12:51:42.389Z,544.37
2019-05-21T12:54:11.181Z,57.63
2019-05-21T12:56:40.955Z,343.80
2019-05-21T12:59:10.070Z,159.70
2019-05-21T13:01:38.872Z,134.67
2019-05-21T13:04:07.756Z,109.30
2019-05-21T13:06:36.697Z,321.87
2019-05-21T13:09:08.431Z,1089.37
2019-05-21T13:11:37.494Z,288.00
2019-05-21T13:14:06.513Z,743.07
2019-05-21T13:16:37.294Z,427.30
2019-05-21T13:19:05.941Z,868.80
2019-05-21T13:21:34.826Z,394.10
2019-05-21T13:24:03.813Z,971.10
2019-05-21T13:26:32.700Z,160.60
2019-05-21T13:29:01.662Z,175.47
2019-05-21T13:31:30.511Z,74.20
2019-05-21T13:33:59.316Z,32.80
2019-05-21T13:36:28.175Z,39.70
2019-05-21T13:38:57.087Z,7.70
2019-05-21T13:41:26.142Z,12.43
2019-05-21T13:43:54.919Z,6.67
2019-05-21T13:46:23.811Z,7.33
2019-05-21T13:48:52.585Z,8.30
2019-05-21T13:51:21.385Z,7.93
2019-05-21T13:53:50.186Z,6.23
2019-05-21T13:56:19.056Z,5.60
2019-05-21T13:58:48.279Z,5.70
2019-05-21T14:01:18.298Z,6.03
2019-05-21T14:03:48.325Z,5.67
2019-05-21T14:06:20.159Z,6.17
2019-05-21T14:08:47.778Z,6.40
2019-05-21T14:11:16.755Z,7.30
2019-05-21T14:13:45.658Z,7.67
2019-05-21T14:16:14.640Z,7.90
2019-05-21T14:18:44.453Z,7.47
2019-05-21T14:21:13.401Z,9.80
2019-05-21T14:23:42.279Z,9.67
2019-05-21T14:26:11.277Z,10.83
2019-05-21T14:28:40.088Z,9.70
2019-05-21T14:31:08.921Z,10.03
2019-05-21T14:33:38.007Z,11.93
2019-05-21T14:36:06.803Z,14.07
2019-05-21T14:38:35.785Z,15.43
2019-05-21T14:41:04.836Z,15.83
2019-05-21T14:43:33.633Z,25.60
2019-05-21T14:46:02.524Z,17.30
2019-05-21T14:48:31.333Z,16.87
2019-05-21T14:51:00.867Z,18.37
2019-05-21T14:53:29.683Z,17.50
2019-05-21T14:55:58.471Z,16.20
2019-05-21T14:58:27.393Z,15.33
2019-05-21T15:00:56.183Z,14.60
2019-05-21T15:03:25.750Z,15.37
2019-05-21T15:05:54.721Z,13.30
2019-05-21T15:08:23.628Z,12.50
2019-05-21T15:10:53.529Z,11.93
2019-05-21T15:13:23.433Z,15.63
2019-05-21T15:15:52.392Z,16.07
2019-05-21T15:18:22.439Z,18.50
2019-05-21T15:20:56.513Z,18.67
2019-05-21T15:23:26.609Z,18.40
2019-05-21T15:25:55.544Z,18.13
2019-05-21T15:28:25.461Z,18.00
2019-05-21T15:30:54.490Z,21.03
2019-05-21T15:33:23.481Z,20.17
2019-05-21T15:35:53.327Z,22.83
2019-05-21T15:38:22.127Z,23.37
2019-05-21T15:41:08.558Z,22.57
2019-05-21T15:43:21.537Z,22.83
2019-05-21T15:45:50.431Z,21.10
2019-05-21T15:48:19.432Z,21.63
2019-05-21T15:50:48.445Z,19.87
2019-05-21T15:53:17.362Z,20.77
2019-05-21T15:55:46.261Z,19.47
2019-05-21T15:58:15.094Z,19.73
2019-05-21T16:00:44.415Z,18.47
2019-05-21T16:03:13.460Z,19.50
2019-05-21T16:05:43.425Z,20.30
2019-05-21T16:08:12.337Z,19.30
2019-05-21T16:10:41.175Z,17.70
2019-05-21T16:13:09.980Z,18.17
2019-05-21T16:15:39.049Z,15.17
2019-05-21T16:18:08.068Z,14.03
2019-05-21T16:20:37.530Z,15.30
2019-05-21T16:23:06.401Z,14.70
2019-05-21T16:25:35.345Z,13.57
2019-05-21T16:28:04.270Z,13.83
2019-05-21T16:30:33.147Z,14.40
2019-05-21T16:33:04.106Z,13.03
2019-05-21T16:35:33.429Z,11.93
2019-05-21T16:38:02.468Z,10.90
2019-05-21T16:40:31.356Z,11.43
2019-05-21T16:43:00.224Z,10.30
2019-05-21T16:45:29.097Z,8.73
2019-05-21T16:47:57.898Z,9.60
2019-05-21T16:50:26.752Z,10.00
2019-05-21T16:52:57.245Z,8.80
2019-05-21T16:55:26.099Z,8.00
2019-05-21T16:57:56.302Z,8.00
2019-05-21T17:00:26.461Z,6.40
2019-05-21T17:02:55.279Z,10.23
2019-05-21T17:05:24.141Z,11.83
2019-05-21T17:07:52.948Z,14.23
2019-05-21T17:10:21.822Z,17.27
2019-05-21T17:12:50.638Z,26.07
2019-05-21T17:15:19.681Z,29.27
2019-05-21T17:17:48.576Z,32.57
2019-05-21T17:20:17.556Z,33.17
2019-05-21T17:22:46.414Z,34.03
2019-05-21T17:25:15.997Z,35.73
2019-05-21T17:27:44.865Z,35.87
2019-05-21T17:30:14.244Z,34.57
2019-05-21T17:32:43.139Z,37.70
2019-05-21T17:35:13.870Z,33.10
2019-05-21T17:37:42.656Z,65.33
2019-05-21T17:40:11.769Z,114.10
2019-05-21T17:42:40.565Z,1103.77
2019-05-21T17:45:09.783Z,993.73
2019-05-21T17:47:38.943Z,690.60
2019-05-21T17:50:08.513Z,1029.27
2019-05-21T17:52:37.328Z,1091.40
2019-05-21T17:55:07.319Z,798.30
2019-05-21T17:57:36.538Z,741.97
2019-05-21T18:00:06.586Z,332.63
2019-05-21T18:02:35.518Z,153.90
2019-05-21T18:05:05.277Z,122.97
2019-05-21T18:07:34.988Z,121.90
2019-05-21T18:10:04.738Z,103.63
2019-05-21T18:12:33.873Z,87.80
2019-05-21T18:15:02.906Z,104.23
2019-05-21T18:17:33.474Z,70.73
2019-05-21T18:20:03.123Z,61.07
2019-05-21T18:22:33.094Z,57.43
2019-05-21T18:25:02.357Z,55.73
2019-05-21T18:27:31.720Z,51.80
2019-05-21T18:30:03.810Z,51.83
2019-05-21T18:32:31.504Z,46.07
2019-05-21T18:35:00.321Z,55.00
2019-05-21T18:37:29.339Z,54.20
2019-05-21T18:39:58.328Z,54.77
2019-05-21T18:42:27.182Z,57.30
2019-05-21T18:44:56.105Z,64.00
2019-05-21T18:47:24.961Z,62.20
2019-05-21T18:49:54.607Z,61.67
2019-05-21T18:52:23.504Z,56.13
2019-05-21T18:54:52.313Z,62.60
2019-05-21T18:57:21.224Z,62.50
2019-05-21T18:59:50.113Z,59.13
2019-05-21T19:02:19.266Z,63.77
2019-05-21T19:04:49.256Z,69.03
2019-05-21T19:07:18.307Z,62.23
2019-05-21T19:09:48.748Z,54.87
2019-05-21T19:12:17.617Z,52.10
2019-05-21T19:14:46.545Z,55.37
2019-05-21T19:17:15.418Z,57.57
2019-05-21T19:19:44.254Z,61.87
2019-05-21T19:22:13.126Z,56.50
2019-05-21T19:24:42.017Z,59.33
2019-05-21T19:27:11.028Z,56.93
2019-05-21T19:29:39.936Z,60.17
2019-05-21T19:32:08.889Z,58.87
2019-05-21T19:34:37.793Z,61.27
2019-05-21T19:37:06.597Z,59.33
2019-05-21T19:39:36.133Z,54.60
2019-05-21T19:42:05.181Z,54.20
2019-05-21T19:44:34.089Z,59.23
2019-05-21T19:47:02.963Z,52.80
2019-05-21T19:49:31.774Z,54.43
2019-05-21T19:52:00.650Z,55.83
2019-05-21T19:54:29.439Z,56.80
2019-05-21T19:56:58.385Z,50.47
2019-05-21T19:59:27.217Z,56.27
2019-05-21T20:01:57.254Z,52.87
2019-05-21T20:04:26.385Z,57.00
2019-05-21T20:06:56.467Z,53.87
2019-05-21T20:09:27.594Z,53.10
2019-05-21T20:11:56.592Z,49.83
2019-05-21T20:14:25.408Z,51.20
2019-05-21T20:16:54.740Z,52.17
2019-05-21T20:19:25.281Z,44.00
2019-05-21T20:21:54.345Z,45.23
2019-05-21T20:24:24.050Z,44.13
2019-05-21T20:26:53.005Z,48.20
2019-05-21T20:29:21.875Z,46.00
2019-05-21T20:31:50.954Z,42.93
2019-05-21T20:34:19.830Z,43.97
2019-05-21T20:36:49.327Z,43.50
2019-05-21T20:39:19.014Z,42.40
2019-05-21T20:41:48.682Z,45.83
2019-05-21T20:44:17.937Z,49.60
2019-05-21T20:46:48.063Z,52.77
2019-05-21T20:49:17.156Z,51.77
2019-05-21T20:51:47.321Z,46.83
2019-05-21T20:54:17.809Z,56.13
2019-05-21T20:56:46.835Z,52.80
2019-05-21T20:59:15.684Z,57.07
2019-05-21T21:01:44.950Z,59.73
2019-05-21T21:04:14.297Z,63.73
2019-05-21T21:06:43.186Z,60.87
2019-05-21T21:09:12.167Z,57.97
2019-05-21T21:11:42.538Z,62.83
2019-05-21T21:14:18.092Z,59.17
2019-05-21T21:16:44.264Z,68.60
2019-05-21T21:19:13.143Z,73.80
2019-05-21T21:21:42.117Z,65.10
2019-05-21T21:24:10.996Z,66.10
2019-05-21T21:26:40.071Z,87.73
2019-05-21T21:29:09.658Z,71.70
2019-05-21T21:31:38.601Z,62.97
2019-05-21T21:34:07.667Z,65.13
2019-05-21T21:36:37.112Z,79.43
2019-05-21T21:39:07.621Z,104.73
2019-05-21T21:41:38.421Z,63.67
2019-05-21T21:44:07.430Z,76.37
2019-05-21T21:46:36.677Z,58.10
2019-05-21T21:49:06.083Z,58.20
2019-05-21T21:51:35.450Z,55.70
2019-05-21T21:54:04.944Z,52.63
2019-05-21T21:56:33.744Z,50.33
2019-05-21T21:59:02.656Z,46.37
2019-05-21T22:01:47.002Z,45.40
2019-05-21T22:04:19.942Z,47.13
2019-05-21T22:06:50.278Z,41.30
2019-05-21T22:09:24.449Z,48.17
2019-05-21T22:11:53.817Z,47.13
2019-05-21T22:14:22.791Z,49.40
2019-05-21T22:16:52.127Z,47.23
2019-05-21T22:19:21.343Z,50.57
2019-05-21T22:21:51.556Z,47.23
2019-05-21T22:24:20.800Z,48.43
2019-05-21T22:26:50.158Z,50.63
2019-05-21T22:29:19.992Z,49.07
2019-05-21T22:31:50.280Z,49.40
2019-05-21T22:34:19.281Z,51.40
2019-05-21T22:36:49.765Z,51.47
2019-05-21T22:39:22.928Z,54.40
2019-05-21T22:41:51.892Z,50.63
2019-05-21T22:44:20.837Z,50.20
2019-05-21T22:46:50.126Z,52.77
2019-05-21T22:49:19.193Z,45.43
2019-05-21T22:51:49.494Z,52.60
2019-05-21T22:54:18.309Z,50.57
2019-05-21T22:56:47.219Z,52.20
2019-05-21T22:59:16.112Z,51.60
2019-05-21T23:01:46.822Z,52.40
2019-05-21T23:04:16.156Z,52.33
2019-05-21T23:06:45.251Z,51.73
2019-05-21T23:09:14.261Z,52.50
2019-05-21T23:11:43.203Z,51.63
2019-05-21T23:14:12.358Z,52.33
2019-05-21T23:16:41.385Z,53.73
2019-05-21T23:19:11.639Z,56.63
2019-05-21T23:21:42.237Z,52.73
2019-05-21T23:24:14.425Z,56.60
2019-05-21T23:26:43.885Z,51.87
2019-05-21T23:29:12.778Z,56.13
2019-05-21T23:31:41.737Z,53.23
2019-05-21T23:34:10.875Z,53.80
2019-05-21T23:36:40.733Z,59.70
2019-05-21T23:39:15.148Z,57.63
2019-05-21T23:41:45.196Z,56.10
2019-05-21T23:44:14.348Z,54.97
2019-05-21T23:46:43.234Z,54.73
2019-05-21T23:49:12.201Z,55.50
2019-05-21T23:51:41.157Z,55.53
2019-05-21T23:54:10.134Z,55.87
2019-05-21T23:56:38.939Z,55.30
2019-05-21T23:59:07.813Z,55.60
